sensor_id;sensor_type;location;lat;lon;timestamp;P1;durP1;ratioP1;P2;durP2;ratioP2
51636;SDS011;37713;53.254;6.460;2023-08-07T00:00:42;7.10;;;3.50;;
51636;SDS011;37713;53.254;6.460;2023-08-07T00:03:07;7.97;;;2.88;;
51636;SDS011;37713;53.254;6.460;2023-08-07T00:05:33;12.50;;;2.85;;
51636;SDS011;37713;53.254;6.460;2023-08-07T00:07:59;7.57;;;2.45;;
51636;SDS011;37713;53.254;6.460;2023-08-07T00:10:25;13.20;;;3.08;;
51636;SDS011;37713;53.254;6.460;2023-08-07T00:12:51;11.65;;;2.95;;
51636;SDS011;37713;53.254;6.460;2023-08-07T00:15:17;14.68;;;2.92;;
51636;SDS011;37713;53.254;6.460;2023-08-07T00:17:43;12.82;;;2.90;;
51636;SDS011;37713;53.254;6.460;2023-08-07T00:20:09;6.75;;;2.70;;
51636;SDS011;37713;53.254;6.460;2023-08-07T00:22:35;7.72;;;2.60;;
51636;SDS011;37713;53.254;6.460;2023-08-07T00:25:01;9.98;;;2.70;;
51636;SDS011;37713;53.254;6.460;2023-08-07T00:27:26;7.03;;;2.78;;
51636;SDS011;37713;53.254;6.460;2023-08-07T00:29:52;8.15;;;2.70;;
51636;SDS011;37713;53.254;6.460;2023-08-07T00:32:18;9.35;;;2.20;;
51636;SDS011;37713;53.254;6.460;2023-08-07T00:34:44;7.28;;;2.33;;
51636;SDS011;37713;53.254;6.460;2023-08-07T00:37:10;16.17;;;2.88;;
51636;SDS011;37713;53.254;6.460;2023-08-07T00:39:36;4.43;;;2.30;;
51636;SDS011;37713;53.254;6.460;2023-08-07T00:42:01;6.78;;;2.17;;
51636;SDS011;37713;53.254;6.460;2023-08-07T00:44:28;4.80;;;2.35;;
51636;SDS011;37713;53.254;6.460;2023-08-07T00:46:53;14.00;;;3.20;;
51636;SDS011;37713;53.254;6.460;2023-08-07T00:49:19;12.65;;;2.50;;
51636;SDS011;37713;53.254;6.460;2023-08-07T00:51:46;5.00;;;2.03;;
51636;SDS011;37713;53.254;6.460;2023-08-07T00:54:14;6.05;;;2.15;;
51636;SDS011;37713;53.254;6.460;2023-08-07T00:59:08;8.05;;;2.20;;
51636;SDS011;37713;53.254;6.460;2023-08-07T01:01:35;38.63;;;3.33;;
51636;SDS011;37713;53.254;6.460;2023-08-07T01:04:01;11.05;;;2.20;;
51636;SDS011;37713;53.254;6.460;2023-08-07T01:06:27;11.38;;;1.98;;
51636;SDS011;37713;53.254;6.460;2023-08-07T01:08:53;6.63;;;2.22;;
51636;SDS011;37713;53.254;6.460;2023-08-07T01:14:08;5.32;;;2.30;;
51636;SDS011;37713;53.254;6.460;2023-08-07T01:16:48;5.65;;;2.35;;
51636;SDS011;37713;53.254;6.460;2023-08-07T01:19:31;11.40;;;2.60;;
51636;SDS011;37713;53.254;6.460;2023-08-07T01:24:41;4.45;;;1.83;;
51636;SDS011;37713;53.254;6.460;2023-08-07T01:35:40;7.88;;;2.80;;
51636;SDS011;37713;53.254;6.460;2023-08-07T01:38:08;6.30;;;2.78;;
51636;SDS011;37713;53.254;6.460;2023-08-07T01:40:35;17.08;;;3.17;;
51636;SDS011;37713;53.254;6.460;2023-08-07T01:43:03;6.70;;;3.15;;
51636;SDS011;37713;53.254;6.460;2023-08-07T01:45:30;5.50;;;2.88;;
51636;SDS011;37713;53.254;6.460;2023-08-07T01:47:56;7.10;;;2.70;;
51636;SDS011;37713;53.254;6.460;2023-08-07T01:50:23;8.65;;;3.25;;
51636;SDS011;37713;53.254;6.460;2023-08-07T01:52:49;7.50;;;3.28;;
51636;SDS011;37713;53.254;6.460;2023-08-07T01:55:16;7.60;;;2.85;;
51636;SDS011;37713;53.254;6.460;2023-08-07T01:57:43;15.88;;;3.83;;
51636;SDS011;37713;53.254;6.460;2023-08-07T02:00:09;8.75;;;3.05;;
51636;SDS011;37713;53.254;6.460;2023-08-07T02:02:36;11.88;;;2.95;;
51636;SDS011;37713;53.254;6.460;2023-08-07T02:05:03;8.18;;;3.00;;
51636;SDS011;37713;53.254;6.460;2023-08-07T02:07:29;11.23;;;3.05;;
51636;SDS011;37713;53.254;6.460;2023-08-07T02:09:55;13.18;;;3.58;;
51636;SDS011;37713;53.254;6.460;2023-08-07T02:12:21;8.98;;;3.13;;
51636;SDS011;37713;53.254;6.460;2023-08-07T02:14:47;9.27;;;2.83;;
51636;SDS011;37713;53.254;6.460;2023-08-07T02:17:12;8.82;;;2.67;;
51636;SDS011;37713;53.254;6.460;2023-08-07T02:19:38;7.55;;;2.78;;
51636;SDS011;37713;53.254;6.460;2023-08-07T02:22:04;10.48;;;2.80;;
51636;SDS011;37713;53.254;6.460;2023-08-07T02:24:30;13.40;;;3.08;;
51636;SDS011;37713;53.254;6.460;2023-08-07T02:26:56;21.70;;;3.22;;
51636;SDS011;37713;53.254;6.460;2023-08-07T02:29:22;14.35;;;3.10;;
51636;SDS011;37713;53.254;6.460;2023-08-07T02:31:48;15.77;;;2.97;;
51636;SDS011;37713;53.254;6.460;2023-08-07T02:34:14;10.00;;;2.70;;
51636;SDS011;37713;53.254;6.460;2023-08-07T02:36:40;14.27;;;3.25;;
51636;SDS011;37713;53.254;6.460;2023-08-07T02:39:06;21.45;;;3.78;;
51636;SDS011;37713;53.254;6.460;2023-08-07T02:41:32;10.90;;;3.20;;
51636;SDS011;37713;53.254;6.460;2023-08-07T02:43:57;9.40;;;3.10;;
51636;SDS011;37713;53.254;6.460;2023-08-07T02:46:23;36.78;;;3.50;;
51636;SDS011;37713;53.254;6.460;2023-08-07T02:48:49;8.82;;;2.80;;
51636;SDS011;37713;53.254;6.460;2023-08-07T02:51:14;9.05;;;2.67;;
51636;SDS011;37713;53.254;6.460;2023-08-07T02:53:40;9.00;;;3.03;;
51636;SDS011;37713;53.254;6.460;2023-08-07T02:56:06;12.90;;;3.25;;
51636;SDS011;37713;53.254;6.460;2023-08-07T02:58:32;8.95;;;3.03;;
51636;SDS011;37713;53.254;6.460;2023-08-07T03:01:02;15.75;;;2.83;;
51636;SDS011;37713;53.254;6.460;2023-08-07T03:03:31;6.55;;;2.80;;
51636;SDS011;37713;53.254;6.460;2023-08-07T03:05:58;8.38;;;2.75;;
51636;SDS011;37713;53.254;6.460;2023-08-07T03:08:23;15.75;;;2.90;;
51636;SDS011;37713;53.254;6.460;2023-08-07T03:10:53;8.20;;;2.33;;
51636;SDS011;37713;53.254;6.460;2023-08-07T03:13:23;7.82;;;2.17;;
51636;SDS011;37713;53.254;6.460;2023-08-07T03:15:49;9.70;;;2.33;;
51636;SDS011;37713;53.254;6.460;2023-08-07T03:18:18;7.78;;;2.10;;
51636;SDS011;37713;53.254;6.460;2023-08-07T03:20:44;10.65;;;2.30;;
51636;SDS011;37713;53.254;6.460;2023-08-07T03:23:10;9.30;;;1.77;;
51636;SDS011;37713;53.254;6.460;2023-08-07T03:25:36;7.50;;;1.90;;
51636;SDS011;37713;53.254;6.460;2023-08-07T03:28:02;8.70;;;1.65;;
51636;SDS011;37713;53.254;6.460;2023-08-07T03:30:28;7.35;;;2.00;;
51636;SDS011;37713;53.254;6.460;2023-08-07T03:32:54;8.40;;;1.33;;
51636;SDS011;37713;53.254;6.460;2023-08-07T03:35:19;7.80;;;1.67;;
51636;SDS011;37713;53.254;6.460;2023-08-07T03:37:45;10.20;;;2.10;;
51636;SDS011;37713;53.254;6.460;2023-08-07T03:40:11;12.20;;;2.13;;
51636;SDS011;37713;53.254;6.460;2023-08-07T03:42:37;11.82;;;2.85;;
51636;SDS011;37713;53.254;6.460;2023-08-07T03:45:03;12.63;;;2.95;;
51636;SDS011;37713;53.254;6.460;2023-08-07T03:47:29;13.07;;;3.35;;
51636;SDS011;37713;53.254;6.460;2023-08-07T03:49:54;11.40;;;3.33;;
51636;SDS011;37713;53.254;6.460;2023-08-07T03:52:20;13.27;;;3.47;;
51636;SDS011;37713;53.254;6.460;2023-08-07T03:54:46;11.30;;;3.03;;
51636;SDS011;37713;53.254;6.460;2023-08-07T03:57:12;13.18;;;3.65;;
51636;SDS011;37713;53.254;6.460;2023-08-07T03:59:37;14.60;;;3.40;;
51636;SDS011;37713;53.254;6.460;2023-08-07T04:02:03;16.13;;;3.35;;
51636;SDS011;37713;53.254;6.460;2023-08-07T04:04:29;16.33;;;3.58;;
51636;SDS011;37713;53.254;6.460;2023-08-07T04:06:55;17.45;;;3.58;;
51636;SDS011;37713;53.254;6.460;2023-08-07T04:09:21;18.15;;;4.03;;
51636;SDS011;37713;53.254;6.460;2023-08-07T04:11:46;15.52;;;3.45;;
51636;SDS011;37713;53.254;6.460;2023-08-07T04:14:12;13.02;;;3.60;;
51636;SDS011;37713;53.254;6.460;2023-08-07T04:16:38;15.10;;;3.30;;
51636;SDS011;37713;53.254;6.460;2023-08-07T04:19:04;17.95;;;3.40;;
51636;SDS011;37713;53.254;6.460;2023-08-07T04:21:31;17.40;;;3.33;;
51636;SDS011;37713;53.254;6.460;2023-08-07T04:23:57;22.15;;;4.10;;
51636;SDS011;37713;53.254;6.460;2023-08-07T04:26:25;17.88;;;3.33;;
51636;SDS011;37713;53.254;6.460;2023-08-07T04:28:51;12.75;;;3.55;;
51636;SDS011;37713;53.254;6.460;2023-08-07T04:31:17;17.10;;;3.75;;
51636;SDS011;37713;53.254;6.460;2023-08-07T04:33:43;17.58;;;3.95;;
51636;SDS011;37713;53.254;6.460;2023-08-07T04:36:09;19.27;;;3.58;;
51636;SDS011;37713;53.254;6.460;2023-08-07T04:38:34;11.02;;;3.25;;
51636;SDS011;37713;53.254;6.460;2023-08-07T04:41:00;14.32;;;3.72;;
51636;SDS011;37713;53.254;6.460;2023-08-07T04:43:26;16.23;;;3.85;;
51636;SDS011;37713;53.254;6.460;2023-08-07T04:45:53;15.68;;;3.45;;
51636;SDS011;37713;53.254;6.460;2023-08-07T04:48:18;18.98;;;3.28;;
51636;SDS011;37713;53.254;6.460;2023-08-07T04:50:46;18.42;;;3.50;;
51636;SDS011;37713;53.254;6.460;2023-08-07T04:53:11;16.35;;;3.28;;
51636;SDS011;37713;53.254;6.460;2023-08-07T04:55:38;14.05;;;2.80;;
51636;SDS011;37713;53.254;6.460;2023-08-07T04:58:04;13.43;;;3.33;;
51636;SDS011;37713;53.254;6.460;2023-08-07T05:00:29;14.75;;;3.08;;
51636;SDS011;37713;53.254;6.460;2023-08-07T05:02:55;17.60;;;3.13;;
51636;SDS011;37713;53.254;6.460;2023-08-07T05:05:21;14.95;;;3.47;;
51636;SDS011;37713;53.254;6.460;2023-08-07T05:07:47;15.85;;;3.65;;
51636;SDS011;37713;53.254;6.460;2023-08-07T05:10:13;19.63;;;3.92;;
51636;SDS011;37713;53.254;6.460;2023-08-07T05:12:39;13.13;;;3.75;;
51636;SDS011;37713;53.254;6.460;2023-08-07T05:15:05;14.52;;;4.22;;
51636;SDS011;37713;53.254;6.460;2023-08-07T05:17:31;18.23;;;3.72;;
51636;SDS011;37713;53.254;6.460;2023-08-07T05:19:57;20.80;;;4.00;;
51636;SDS011;37713;53.254;6.460;2023-08-07T05:22:23;14.75;;;4.30;;
51636;SDS011;37713;53.254;6.460;2023-08-07T05:24:49;16.10;;;4.43;;
51636;SDS011;37713;53.254;6.460;2023-08-07T05:27:15;15.98;;;3.67;;
51636;SDS011;37713;53.254;6.460;2023-08-07T05:29:41;18.60;;;4.35;;
51636;SDS011;37713;53.254;6.460;2023-08-07T05:32:13;13.68;;;3.63;;
51636;SDS011;37713;53.254;6.460;2023-08-07T05:34:40;12.80;;;3.10;;
51636;SDS011;37713;53.254;6.460;2023-08-07T05:37:06;18.48;;;3.58;;
51636;SDS011;37713;53.254;6.460;2023-08-07T05:39:33;14.88;;;3.35;;
51636;SDS011;37713;53.254;6.460;2023-08-07T05:41:59;21.85;;;3.83;;
51636;SDS011;37713;53.254;6.460;2023-08-07T05:44:25;15.02;;;3.25;;
51636;SDS011;37713;53.254;6.460;2023-08-07T05:46:51;12.02;;;3.38;;
51636;SDS011;37713;53.254;6.460;2023-08-07T05:49:17;12.63;;;2.92;;
51636;SDS011;37713;53.254;6.460;2023-08-07T05:51:42;11.43;;;3.25;;
51636;SDS011;37713;53.254;6.460;2023-08-07T05:54:08;13.52;;;2.95;;
51636;SDS011;37713;53.254;6.460;2023-08-07T05:56:35;14.68;;;3.03;;
51636;SDS011;37713;53.254;6.460;2023-08-07T05:59:02;14.15;;;3.25;;
51636;SDS011;37713;53.254;6.460;2023-08-07T06:01:28;15.20;;;3.55;;
51636;SDS011;37713;53.254;6.460;2023-08-07T06:03:59;16.00;;;3.25;;
51636;SDS011;37713;53.254;6.460;2023-08-07T06:06:26;9.93;;;2.70;;
51636;SDS011;37713;53.254;6.460;2023-08-07T06:08:56;13.05;;;2.72;;
51636;SDS011;37713;53.254;6.460;2023-08-07T06:11:22;15.40;;;3.33;;
51636;SDS011;37713;53.254;6.460;2023-08-07T06:13:48;16.30;;;2.80;;
51636;SDS011;37713;53.254;6.460;2023-08-07T06:16:14;15.40;;;3.80;;
51636;SDS011;37713;53.254;6.460;2023-08-07T06:18:40;16.15;;;3.10;;
51636;SDS011;37713;53.254;6.460;2023-08-07T06:21:06;15.98;;;2.80;;
51636;SDS011;37713;53.254;6.460;2023-08-07T06:23:35;12.50;;;3.10;;
51636;SDS011;37713;53.254;6.460;2023-08-07T06:26:00;17.88;;;3.00;;
51636;SDS011;37713;53.254;6.460;2023-08-07T06:28:29;11.38;;;2.70;;
51636;SDS011;37713;53.254;6.460;2023-08-07T06:31:02;14.95;;;3.20;;
51636;SDS011;37713;53.254;6.460;2023-08-07T06:33:33;13.40;;;3.22;;
51636;SDS011;37713;53.254;6.460;2023-08-07T06:35:59;10.02;;;2.22;;
51636;SDS011;37713;53.254;6.460;2023-08-07T06:38:25;11.45;;;2.65;;
51636;SDS011;37713;53.254;6.460;2023-08-07T06:40:51;9.60;;;2.88;;
51636;SDS011;37713;53.254;6.460;2023-08-07T06:43:17;13.05;;;2.60;;
51636;SDS011;37713;53.254;6.460;2023-08-07T06:45:43;11.73;;;2.55;;
51636;SDS011;37713;53.254;6.460;2023-08-07T06:48:12;11.80;;;2.88;;
51636;SDS011;37713;53.254;6.460;2023-08-07T06:50:37;15.27;;;3.20;;
51636;SDS011;37713;53.254;6.460;2023-08-07T06:53:03;16.48;;;3.25;;
51636;SDS011;37713;53.254;6.460;2023-08-07T06:55:29;13.07;;;2.90;;
51636;SDS011;37713;53.254;6.460;2023-08-07T06:57:55;13.65;;;2.97;;
51636;SDS011;37713;53.254;6.460;2023-08-07T07:00:20;10.20;;;2.40;;
51636;SDS011;37713;53.254;6.460;2023-08-07T07:02:46;13.27;;;3.15;;
51636;SDS011;37713;53.254;6.460;2023-08-07T07:05:12;15.23;;;2.80;;
51636;SDS011;37713;53.254;6.460;2023-08-07T07:07:38;14.02;;;2.80;;
51636;SDS011;37713;53.254;6.460;2023-08-07T07:10:04;11.95;;;2.83;;
51636;SDS011;37713;53.254;6.460;2023-08-07T07:12:30;9.40;;;2.55;;
51636;SDS011;37713;53.254;6.460;2023-08-07T07:14:56;11.48;;;2.95;;
51636;SDS011;37713;53.254;6.460;2023-08-07T07:17:21;12.27;;;3.00;;
51636;SDS011;37713;53.254;6.460;2023-08-07T07:19:48;12.90;;;2.95;;
51636;SDS011;37713;53.254;6.460;2023-08-07T07:22:13;13.70;;;3.33;;
51636;SDS011;37713;53.254;6.460;2023-08-07T07:24:39;9.93;;;3.08;;
51636;SDS011;37713;53.254;6.460;2023-08-07T07:27:05;10.70;;;3.05;;
51636;SDS011;37713;53.254;6.460;2023-08-07T07:29:31;14.30;;;2.80;;
51636;SDS011;37713;53.254;6.460;2023-08-07T07:31:57;10.43;;;2.90;;
51636;SDS011;37713;53.254;6.460;2023-08-07T07:34:23;12.13;;;2.88;;
51636;SDS011;37713;53.254;6.460;2023-08-07T07:36:49;13.07;;;3.05;;
51636;SDS011;37713;53.254;6.460;2023-08-07T07:39:16;10.65;;;2.50;;
51636;SDS011;37713;53.254;6.460;2023-08-07T07:41:42;13.63;;;2.78;;
51636;SDS011;37713;53.254;6.460;2023-08-07T07:44:08;16.05;;;3.00;;
51636;SDS011;37713;53.254;6.460;2023-08-07T07:46:34;11.23;;;2.95;;
51636;SDS011;37713;53.254;6.460;2023-08-07T07:48:59;9.27;;;2.63;;
51636;SDS011;37713;53.254;6.460;2023-08-07T07:51:26;15.80;;;3.33;;
51636;SDS011;37713;53.254;6.460;2023-08-07T07:53:52;12.80;;;3.42;;
51636;SDS011;37713;53.254;6.460;2023-08-07T07:56:18;12.57;;;3.85;;
51636;SDS011;37713;53.254;6.460;2023-08-07T07:58:43;18.10;;;3.33;;
51636;SDS011;37713;53.254;6.460;2023-08-07T08:01:09;13.07;;;3.17;;
51636;SDS011;37713;53.254;6.460;2023-08-07T08:03:36;12.13;;;3.35;;
51636;SDS011;37713;53.254;6.460;2023-08-07T08:06:02;13.02;;;3.33;;
51636;SDS011;37713;53.254;6.460;2023-08-07T08:08:28;10.70;;;3.13;;
51636;SDS011;37713;53.254;6.460;2023-08-07T08:10:54;14.13;;;3.50;;
51636;SDS011;37713;53.254;6.460;2023-08-07T08:13:19;12.15;;;3.33;;
51636;SDS011;37713;53.254;6.460;2023-08-07T08:15:45;10.82;;;2.85;;
51636;SDS011;37713;53.254;6.460;2023-08-07T08:18:11;13.15;;;3.53;;
51636;SDS011;37713;53.254;6.460;2023-08-07T08:20:37;10.15;;;2.92;;
51636;SDS011;37713;53.254;6.460;2023-08-07T08:23:04;21.23;;;3.80;;
51636;SDS011;37713;53.254;6.460;2023-08-07T08:25:30;14.65;;;3.78;;
51636;SDS011;37713;53.254;6.460;2023-08-07T08:27:58;10.35;;;3.40;;
51636;SDS011;37713;53.254;6.460;2023-08-07T08:30:25;12.00;;;2.50;;
51636;SDS011;37713;53.254;6.460;2023-08-07T08:32:51;17.13;;;2.95;;
51636;SDS011;37713;53.254;6.460;2023-08-07T08:35:16;8.98;;;2.33;;
51636;SDS011;37713;53.254;6.460;2023-08-07T08:37:42;15.98;;;2.63;;
51636;SDS011;37713;53.254;6.460;2023-08-07T08:40:09;10.73;;;2.78;;
51636;SDS011;37713;53.254;6.460;2023-08-07T08:42:45;12.88;;;2.78;;
51636;SDS011;37713;53.254;6.460;2023-08-07T08:45:14;15.95;;;3.15;;
51636;SDS011;37713;53.254;6.460;2023-08-07T08:47:43;12.93;;;2.77;;
51636;SDS011;37713;53.254;6.460;2023-08-07T08:50:12;10.73;;;2.58;;
51636;SDS011;37713;53.254;6.460;2023-08-07T08:52:43;10.70;;;2.50;;
51636;SDS011;37713;53.254;6.460;2023-08-07T08:55:10;11.98;;;2.42;;
51636;SDS011;37713;53.254;6.460;2023-08-07T08:57:37;13.10;;;2.58;;
51636;SDS011;37713;53.254;6.460;2023-08-07T09:00:05;11.15;;;2.35;;
51636;SDS011;37713;53.254;6.460;2023-08-07T09:02:40;10.95;;;2.47;;
51636;SDS011;37713;53.254;6.460;2023-08-07T09:05:07;9.63;;;2.72;;
51636;SDS011;37713;53.254;6.460;2023-08-07T09:07:33;11.55;;;2.65;;
51636;SDS011;37713;53.254;6.460;2023-08-07T09:10:00;9.23;;;2.60;;
51636;SDS011;37713;53.254;6.460;2023-08-07T09:12:29;12.02;;;2.47;;
51636;SDS011;37713;53.254;6.460;2023-08-07T09:14:57;10.40;;;2.42;;
51636;SDS011;37713;53.254;6.460;2023-08-07T09:17:24;10.07;;;2.58;;
51636;SDS011;37713;53.254;6.460;2023-08-07T09:19:53;13.07;;;2.30;;
51636;SDS011;37713;53.254;6.460;2023-08-07T09:22:19;14.18;;;2.65;;
51636;SDS011;37713;53.254;6.460;2023-08-07T09:24:45;14.35;;;3.42;;
51636;SDS011;37713;53.254;6.460;2023-08-07T09:27:11;13.80;;;2.65;;
51636;SDS011;37713;53.254;6.460;2023-08-07T09:29:41;13.13;;;2.30;;
51636;SDS011;37713;53.254;6.460;2023-08-07T09:32:14;14.38;;;2.63;;
51636;SDS011;37713;53.254;6.460;2023-08-07T09:34:40;11.10;;;2.50;;
51636;SDS011;37713;53.254;6.460;2023-08-07T09:37:07;11.50;;;2.30;;
51636;SDS011;37713;53.254;6.460;2023-08-07T09:39:34;11.07;;;2.35;;
51636;SDS011;37713;53.254;6.460;2023-08-07T09:42:01;8.68;;;2.00;;
51636;SDS011;37713;53.254;6.460;2023-08-07T09:44:34;12.00;;;2.50;;
51636;SDS011;37713;53.254;6.460;2023-08-07T09:47:10;9.65;;;2.30;;
51636;SDS011;37713;53.254;6.460;2023-08-07T09:49:38;11.85;;;2.40;;
51636;SDS011;37713;53.254;6.460;2023-08-07T09:52:08;7.75;;;2.20;;
51636;SDS011;37713;53.254;6.460;2023-08-07T09:54:36;11.23;;;2.42;;
51636;SDS011;37713;53.254;6.460;2023-08-07T09:57:02;10.98;;;2.55;;
51636;SDS011;37713;53.254;6.460;2023-08-07T09:59:30;10.32;;;2.85;;
51636;SDS011;37713;53.254;6.460;2023-08-07T10:01:57;12.10;;;3.38;;
51636;SDS011;37713;53.254;6.460;2023-08-07T10:04:25;11.07;;;3.10;;
51636;SDS011;37713;53.254;6.460;2023-08-07T10:06:51;10.85;;;2.72;;
51636;SDS011;37713;53.254;6.460;2023-08-07T10:09:18;9.52;;;2.22;;
51636;SDS011;37713;53.254;6.460;2023-08-07T10:11:45;8.18;;;2.25;;
51636;SDS011;37713;53.254;6.460;2023-08-07T10:14:14;12.15;;;3.05;;
51636;SDS011;37713;53.254;6.460;2023-08-07T10:16:40;12.20;;;2.70;;
51636;SDS011;37713;53.254;6.460;2023-08-07T10:19:09;9.50;;;2.70;;
51636;SDS011;37713;53.254;6.460;2023-08-07T10:21:37;14.32;;;3.25;;
51636;SDS011;37713;53.254;6.460;2023-08-07T10:24:04;11.07;;;2.72;;
51636;SDS011;37713;53.254;6.460;2023-08-07T10:26:35;10.43;;;2.60;;
51636;SDS011;37713;53.254;6.460;2023-08-07T10:29:06;12.27;;;3.00;;
51636;SDS011;37713;53.254;6.460;2023-08-07T10:31:34;12.48;;;3.28;;
51636;SDS011;37713;53.254;6.460;2023-08-07T10:34:03;12.65;;;3.10;;
51636;SDS011;37713;53.254;6.460;2023-08-07T10:36:35;14.18;;;2.58;;
51636;SDS011;37713;53.254;6.460;2023-08-07T10:39:10;10.35;;;3.15;;
51636;SDS011;37713;53.254;6.460;2023-08-07T10:41:37;11.32;;;2.28;;
51636;SDS011;37713;53.254;6.460;2023-08-07T10:44:05;9.07;;;2.08;;
51636;SDS011;37713;53.254;6.460;2023-08-07T10:46:48;11.38;;;2.30;;
51636;SDS011;37713;53.254;6.460;2023-08-07T10:49:32;7.40;;;2.20;;
51636;SDS011;37713;53.254;6.460;2023-08-07T10:51:59;8.60;;;2.03;;
51636;SDS011;37713;53.254;6.460;2023-08-07T10:54:29;11.88;;;2.13;;
51636;SDS011;37713;53.254;6.460;2023-08-07T10:56:55;10.48;;;2.33;;
51636;SDS011;37713;53.254;6.460;2023-08-07T10:59:21;7.10;;;1.80;;
51636;SDS011;37713;53.254;6.460;2023-08-07T11:01:50;7.95;;;2.30;;
51636;SDS011;37713;53.254;6.460;2023-08-07T11:04:17;11.45;;;2.17;;
51636;SDS011;37713;53.254;6.460;2023-08-07T11:06:46;10.40;;;2.50;;
51636;SDS011;37713;53.254;6.460;2023-08-07T11:09:13;9.00;;;2.28;;
51636;SDS011;37713;53.254;6.460;2023-08-07T11:11:39;12.07;;;2.17;;
51636;SDS011;37713;53.254;6.460;2023-08-07T11:14:11;12.43;;;2.17;;
51636;SDS011;37713;53.254;6.460;2023-08-07T11:16:39;9.63;;;2.20;;
51636;SDS011;37713;53.254;6.460;2023-08-07T11:19:05;13.15;;;2.50;;
51636;SDS011;37713;53.254;6.460;2023-08-07T11:21:32;9.43;;;2.40;;
51636;SDS011;37713;53.254;6.460;2023-08-07T11:23:58;9.43;;;2.45;;
51636;SDS011;37713;53.254;6.460;2023-08-07T11:26:24;10.05;;;2.10;;
51636;SDS011;37713;53.254;6.460;2023-08-07T11:28:51;9.88;;;2.20;;
51636;SDS011;37713;53.254;6.460;2023-08-07T11:31:20;11.43;;;2.47;;
51636;SDS011;37713;53.254;6.460;2023-08-07T11:33:50;9.45;;;1.77;;
51636;SDS011;37713;53.254;6.460;2023-08-07T11:36:16;8.10;;;1.92;;
51636;SDS011;37713;53.254;6.460;2023-08-07T11:38:43;7.85;;;2.13;;
51636;SDS011;37713;53.254;6.460;2023-08-07T11:41:10;7.63;;;2.10;;
51636;SDS011;37713;53.254;6.460;2023-08-07T11:43:38;5.15;;;1.52;;
51636;SDS011;37713;53.254;6.460;2023-08-07T11:46:05;4.07;;;1.33;;
51636;SDS011;37713;53.254;6.460;2023-08-07T11:48:35;6.38;;;1.52;;
51636;SDS011;37713;53.254;6.460;2023-08-07T11:51:03;6.60;;;1.75;;
51636;SDS011;37713;53.254;6.460;2023-08-07T11:53:34;6.15;;;1.73;;
51636;SDS011;37713;53.254;6.460;2023-08-07T11:56:05;7.30;;;2.05;;
51636;SDS011;37713;53.254;6.460;2023-08-07T11:58:40;7.22;;;1.60;;
51636;SDS011;37713;53.254;6.460;2023-08-07T12:01:12;8.60;;;2.35;;
51636;SDS011;37713;53.254;6.460;2023-08-07T12:03:49;9.18;;;2.05;;
51636;SDS011;37713;53.254;6.460;2023-08-07T12:06:33;7.90;;;1.77;;
51636;SDS011;37713;53.254;6.460;2023-08-07T12:09:00;8.32;;;2.22;;
51636;SDS011;37713;53.254;6.460;2023-08-07T12:11:30;6.35;;;2.08;;
51636;SDS011;37713;53.254;6.460;2023-08-07T12:13:59;6.38;;;1.70;;
51636;SDS011;37713;53.254;6.460;2023-08-07T12:16:26;5.38;;;1.70;;
51636;SDS011;37713;53.254;6.460;2023-08-07T12:18:51;7.57;;;1.73;;
51636;SDS011;37713;53.254;6.460;2023-08-07T12:21:18;7.97;;;1.70;;
51636;SDS011;37713;53.254;6.460;2023-08-07T12:23:50;9.55;;;2.47;;
51636;SDS011;37713;53.254;6.460;2023-08-07T12:26:20;9.13;;;2.33;;
51636;SDS011;37713;53.254;6.460;2023-08-07T12:28:45;10.88;;;2.55;;
51636;SDS011;37713;53.254;6.460;2023-08-07T12:31:11;11.95;;;2.50;;
51636;SDS011;37713;53.254;6.460;2023-08-07T12:33:37;10.27;;;2.42;;
51636;SDS011;37713;53.254;6.460;2023-08-07T12:36:03;10.70;;;2.45;;
51636;SDS011;37713;53.254;6.460;2023-08-07T12:38:29;7.32;;;2.30;;
51636;SDS011;37713;53.254;6.460;2023-08-07T12:40:55;7.63;;;1.85;;
51636;SDS011;37713;53.254;6.460;2023-08-07T12:43:22;9.10;;;1.70;;
51636;SDS011;37713;53.254;6.460;2023-08-07T12:45:48;7.40;;;1.95;;
51636;SDS011;37713;53.254;6.460;2023-08-07T12:48:14;8.60;;;2.22;;
51636;SDS011;37713;53.254;6.460;2023-08-07T12:50:40;7.93;;;2.38;;
51636;SDS011;37713;53.254;6.460;2023-08-07T12:53:06;9.88;;;2.40;;
51636;SDS011;37713;53.254;6.460;2023-08-07T12:55:33;8.82;;;2.70;;
51636;SDS011;37713;53.254;6.460;2023-08-07T12:57:59;10.90;;;2.65;;
51636;SDS011;37713;53.254;6.460;2023-08-07T13:00:25;9.63;;;2.25;;
51636;SDS011;37713;53.254;6.460;2023-08-07T13:02:51;10.20;;;2.50;;
51636;SDS011;37713;53.254;6.460;2023-08-07T13:05:19;8.68;;;2.40;;
51636;SDS011;37713;53.254;6.460;2023-08-07T13:07:46;11.40;;;2.70;;
51636;SDS011;37713;53.254;6.460;2023-08-07T13:10:14;10.13;;;2.70;;
51636;SDS011;37713;53.254;6.460;2023-08-07T13:12:41;9.77;;;2.73;;
51636;SDS011;37713;53.254;6.460;2023-08-07T13:15:09;11.18;;;2.92;;
51636;SDS011;37713;53.254;6.460;2023-08-07T13:17:38;9.30;;;2.55;;
51636;SDS011;37713;53.254;6.460;2023-08-07T13:20:04;9.88;;;2.90;;
51636;SDS011;37713;53.254;6.460;2023-08-07T13:22:42;15.52;;;2.90;;
51636;SDS011;37713;53.254;6.460;2023-08-07T13:25:10;11.40;;;2.85;;
51636;SDS011;37713;53.254;6.460;2023-08-07T13:27:37;10.70;;;2.65;;
51636;SDS011;37713;53.254;6.460;2023-08-07T13:30:04;6.93;;;2.30;;
51636;SDS011;37713;53.254;6.460;2023-08-07T13:32:30;12.07;;;2.30;;
51636;SDS011;37713;53.254;6.460;2023-08-07T13:34:57;8.68;;;2.35;;
51636;SDS011;37713;53.254;6.460;2023-08-07T13:37:23;9.38;;;2.47;;
51636;SDS011;37713;53.254;6.460;2023-08-07T13:39:48;10.00;;;2.28;;
51636;SDS011;37713;53.254;6.460;2023-08-07T13:42:17;10.13;;;2.50;;
51636;SDS011;37713;53.254;6.460;2023-08-07T13:44:43;9.05;;;2.60;;
51636;SDS011;37713;53.254;6.460;2023-08-07T13:47:09;8.77;;;2.47;;
51636;SDS011;37713;53.254;6.460;2023-08-07T13:49:36;9.93;;;2.55;;
51636;SDS011;37713;53.254;6.460;2023-08-07T13:52:02;10.88;;;2.67;;
51636;SDS011;37713;53.254;6.460;2023-08-07T13:54:28;14.55;;;2.88;;
51636;SDS011;37713;53.254;6.460;2023-08-07T13:56:54;14.95;;;2.75;;
51636;SDS011;37713;53.254;6.460;2023-08-07T13:59:19;9.88;;;2.50;;
51636;SDS011;37713;53.254;6.460;2023-08-07T14:01:45;8.35;;;2.22;;
51636;SDS011;37713;53.254;6.460;2023-08-07T14:04:11;9.07;;;2.45;;
51636;SDS011;37713;53.254;6.460;2023-08-07T14:06:39;11.75;;;2.30;;
51636;SDS011;37713;53.254;6.460;2023-08-07T14:09:06;9.98;;;2.65;;
51636;SDS011;37713;53.254;6.460;2023-08-07T14:11:31;13.07;;;2.63;;
51636;SDS011;37713;53.254;6.460;2023-08-07T14:13:57;10.13;;;2.75;;
51636;SDS011;37713;53.254;6.460;2023-08-07T14:16:23;10.43;;;2.50;;
51636;SDS011;37713;53.254;6.460;2023-08-07T14:18:50;11.52;;;2.17;;
51636;SDS011;37713;53.254;6.460;2023-08-07T14:21:16;10.60;;;2.53;;
51636;SDS011;37713;53.254;6.460;2023-08-07T14:23:42;9.48;;;2.30;;
51636;SDS011;37713;53.254;6.460;2023-08-07T14:26:10;7.35;;;2.20;;
51636;SDS011;37713;53.254;6.460;2023-08-07T14:28:36;8.82;;;2.10;;
51636;SDS011;37713;53.254;6.460;2023-08-07T14:31:05;9.15;;;2.17;;
51636;SDS011;37713;53.254;6.460;2023-08-07T14:33:32;7.57;;;2.10;;
51636;SDS011;37713;53.254;6.460;2023-08-07T14:35:58;11.65;;;1.90;;
51636;SDS011;37713;53.254;6.460;2023-08-07T14:38:25;8.73;;;1.90;;
51636;SDS011;37713;53.254;6.460;2023-08-07T14:40:51;8.68;;;2.05;;
51636;SDS011;37713;53.254;6.460;2023-08-07T14:43:16;9.13;;;2.10;;
51636;SDS011;37713;53.254;6.460;2023-08-07T14:45:42;10.95;;;2.42;;
51636;SDS011;37713;53.254;6.460;2023-08-07T14:48:08;8.68;;;2.20;;
51636;SDS011;37713;53.254;6.460;2023-08-07T14:50:34;7.53;;;2.13;;
51636;SDS011;37713;53.254;6.460;2023-08-07T14:53:00;6.95;;;2.15;;